createdAt,value
2023-01-23T00:01:43.555Z,93169.97
2023-01-23T00:04:15.047Z,93171.53
2023-01-23T00:06:43.994Z,93161.53
2023-01-23T00:09:13.831Z,93163.38
2023-01-23T00:11:42.330Z,93166.75
2023-01-23T00:14:12.032Z,93165.97
2023-01-23T00:16:40.561Z,93167.16
2023-01-23T00:19:10.404Z,93165.28
2023-01-23T00:21:39.473Z,93168.03
2023-01-23T00:24:09.982Z,93157.53
2023-01-23T00:26:39.834Z,93165.25
2023-01-23T00:29:08.617Z,93159.56
2023-01-23T00:31:40.206Z,93163.28
2023-01-23T00:34:12.549Z,93164.66
2023-01-23T00:36:44.569Z,93160.06
2023-01-23T00:39:20.034Z,93162.44
2023-01-23T00:41:51.377Z,93157.25
2023-01-23T00:44:20.274Z,93160.97
2023-01-23T00:46:49.857Z,93156.47
2023-01-23T00:49:18.949Z,93166.03
2023-01-23T00:51:47.718Z,93163.50
2023-01-23T00:54:16.684Z,93159.75
2023-01-23T00:56:45.366Z,93165.03
2023-01-23T00:59:15.242Z,93164.06
2023-01-23T01:01:43.682Z,93166.84
2023-01-23T01:04:12.224Z,93170.38
2023-01-23T01:06:40.673Z,93171.75
2023-01-23T01:09:09.195Z,93173.28
2023-01-23T01:11:37.628Z,93166.47
2023-01-23T01:14:06.595Z,93170.78
2023-01-23T01:16:36.453Z,93165.84
2023-01-23T01:19:05.426Z,93176.66
2023-01-23T01:21:33.919Z,93172.53
2023-01-23T01:24:02.566Z,93171.03
2023-01-23T01:26:30.977Z,93169.00
2023-01-23T01:28:59.416Z,93174.06
2023-01-23T01:31:28.457Z,93180.44
2023-01-23T01:33:58.371Z,93184.97
2023-01-23T01:36:27.185Z,93179.22
2023-01-23T01:38:55.620Z,93179.00
2023-01-23T01:41:24.106Z,93186.66
2023-01-23T01:43:53.463Z,93187.75
2023-01-23T01:46:24.796Z,93187.31
2023-01-23T01:49:07.821Z,93196.41
2023-01-23T01:51:43.469Z,93190.25
2023-01-23T01:54:22.928Z,93193.38
2023-01-23T01:56:56.616Z,93187.50
2023-01-23T01:59:30.797Z,93190.81
2023-01-23T02:02:06.127Z,93196.09
2023-01-23T02:04:42.449Z,93190.13
2023-01-23T02:07:18.775Z,93191.84
2023-01-23T02:09:48.112Z,93198.38
2023-01-23T02:12:16.948Z,93201.03
2023-01-23T02:14:45.542Z,93198.38
2023-01-23T02:17:14.433Z,93193.97
2023-01-23T02:20:00.575Z,93193.59
2023-01-23T02:22:43.464Z,93184.22
2023-01-23T02:25:22.154Z,93195.78
2023-01-23T02:27:51.979Z,93184.75
2023-01-23T02:30:21.510Z,93183.09
2023-01-23T02:32:50.198Z,93184.66
2023-01-23T02:35:26.608Z,93177.50
2023-01-23T02:37:59.980Z,93181.03
2023-01-23T02:40:33.931Z,93177.59
2023-01-23T02:43:06.517Z,93188.47
2023-01-23T02:45:35.056Z,93180.69
2023-01-23T02:48:06.129Z,93188.88
2023-01-23T02:50:34.747Z,93180.56
2023-01-23T02:53:03.733Z,93177.22
2023-01-23T02:55:42.409Z,93184.06
2023-01-23T02:58:29.667Z,93181.59
2023-01-23T03:00:58.234Z,93171.81
2023-01-23T03:03:26.839Z,93177.03
2023-01-23T03:05:55.952Z,93177.66
2023-01-23T03:08:26.224Z,93169.66
2023-01-23T03:10:54.852Z,93178.97
2023-01-23T03:13:24.650Z,93179.06
2023-01-23T03:15:53.680Z,93178.88
2023-01-23T03:18:22.133Z,93185.94
2023-01-23T03:20:50.720Z,93187.78
2023-01-23T03:23:19.166Z,93182.59
2023-01-23T03:25:49.017Z,93183.13
2023-01-23T03:28:31.542Z,93187.25
2023-01-23T03:31:01.488Z,93195.31
2023-01-23T03:33:30.388Z,93186.72
2023-01-23T03:35:59.092Z,93175.53
2023-01-23T03:38:27.521Z,93171.63
2023-01-23T03:41:13.400Z,93171.81
2023-01-23T03:43:41.821Z,93165.44
2023-01-23T03:46:11.754Z,93165.94
2023-01-23T03:48:40.932Z,93167.09
2023-01-23T03:51:09.403Z,93159.28
2023-01-23T03:53:38.043Z,93157.81
2023-01-23T03:56:07.868Z,93162.22
2023-01-23T03:58:36.589Z,93162.22
2023-01-23T04:01:08.377Z,93173.31
2023-01-23T04:03:38.471Z,93181.75
2023-01-23T04:06:07.559Z,93179.19
2023-01-23T04:08:36.110Z,93182.31
2023-01-23T04:11:07.056Z,93181.22
2023-01-23T04:13:35.610Z,93182.78
2023-01-23T04:16:05.551Z,93191.91
2023-01-23T04:18:34.324Z,93187.59
2023-01-23T04:21:04.276Z,93189.38
2023-01-23T04:23:33.269Z,93193.59
2023-01-23T04:26:01.700Z,93187.69
2023-01-23T04:28:30.212Z,93193.28
2023-01-23T04:31:01.192Z,93193.13
2023-01-23T04:33:29.976Z,93189.28
2023-01-23T04:36:01.427Z,93190.44
2023-01-23T04:38:32.430Z,93190.34
2023-01-23T04:41:00.943Z,93185.69
2023-01-23T04:43:29.392Z,93182.38
2023-01-23T04:45:58.982Z,93173.53
2023-01-23T04:48:27.716Z,93176.63
2023-01-23T04:50:56.197Z,93180.44
2023-01-23T04:53:24.659Z,93178.09
2023-01-23T04:55:54.450Z,93183.19
2023-01-23T04:58:22.918Z,93173.88
2023-01-23T05:00:51.946Z,93175.28
2023-01-23T05:03:20.737Z,93183.13
2023-01-23T05:05:50.168Z,93181.72
2023-01-23T05:08:18.576Z,93180.53
2023-01-23T05:10:47.058Z,93181.81
2023-01-23T05:13:17.112Z,93179.47
2023-01-23T05:15:45.622Z,93180.84
2023-01-23T05:18:14.117Z,93185.53
2023-01-23T05:20:42.562Z,93184.06
2023-01-23T05:23:11.358Z,93190.44
2023-01-23T05:25:39.804Z,93185.56
2023-01-23T05:28:10.237Z,93190.34
2023-01-23T05:30:41.565Z,93199.50
2023-01-23T05:33:10.081Z,93189.28
2023-01-23T05:35:41.089Z,93194.75
2023-01-23T05:38:09.553Z,93190.28
2023-01-23T05:40:37.976Z,93184.50
2023-01-23T05:43:06.648Z,93189.47
2023-01-23T05:45:35.583Z,93187.09
2023-01-23T05:48:06.138Z,93184.78
2023-01-23T05:50:34.817Z,93185.50
2023-01-23T05:53:03.377Z,93197.72
2023-01-23T05:55:32.123Z,93194.59
2023-01-23T05:58:00.585Z,93198.91
2023-01-23T06:00:29.289Z,93204.28
2023-01-23T06:02:58.029Z,93208.78
2023-01-23T06:05:27.987Z,93210.25
2023-01-23T06:07:56.720Z,93215.53
2023-01-23T06:10:25.218Z,93214.38
2023-01-23T06:12:54.020Z,93210.56
2023-01-23T06:15:22.964Z,93206.16
2023-01-23T06:17:51.479Z,93216.34
2023-01-23T06:20:20.516Z,93225.16
2023-01-23T06:22:50.741Z,93227.19
2023-01-23T06:25:21.016Z,93237.88
2023-01-23T06:27:49.978Z,93233.59
2023-01-23T06:30:20.358Z,93234.16
2023-01-23T06:32:49.103Z,93235.91
2023-01-23T06:35:18.139Z,93250.41
2023-01-23T06:37:46.905Z,93238.09
2023-01-23T06:40:17.883Z,93246.50
2023-01-23T06:42:46.466Z,93247.59
2023-01-23T06:45:14.890Z,93256.19
2023-01-23T06:47:43.312Z,93249.44
2023-01-23T06:50:12.356Z,93253.16
2023-01-23T06:52:40.789Z,93253.84
2023-01-23T06:55:10.581Z,93257.06
2023-01-23T06:57:40.925Z,93251.41
2023-01-23T07:00:11.496Z,93263.94
2023-01-23T07:02:40.364Z,93255.91
2023-01-23T07:05:09.602Z,93258.25
2023-01-23T07:07:38.337Z,93247.00
2023-01-23T07:10:08.438Z,93248.84
2023-01-23T07:12:36.953Z,93246.69
2023-01-23T07:15:08.521Z,93247.69
2023-01-23T07:17:37.075Z,93265.28
2023-01-23T07:20:06.453Z,93250.63
2023-01-23T07:22:34.917Z,93255.69
2023-01-23T07:25:03.355Z,93256.59
2023-01-23T07:27:33.172Z,93260.00
2023-01-23T07:30:02.607Z,93265.09
2023-01-23T07:32:32.429Z,93261.00
2023-01-23T07:35:00.905Z,93255.72
2023-01-23T07:37:29.367Z,93251.22
2023-01-23T07:39:57.806Z,93252.28
2023-01-23T07:42:26.344Z,93260.50
2023-01-23T07:44:54.769Z,93257.88
2023-01-23T07:47:23.191Z,93251.78
2023-01-23T07:49:53.016Z,93254.34
2023-01-23T07:52:21.523Z,93254.13
2023-01-23T07:54:49.970Z,93252.41
2023-01-23T07:57:18.397Z,93253.44
2023-01-23T07:59:48.617Z,93256.41
2023-01-23T08:02:17.100Z,93253.94
2023-01-23T08:04:46.759Z,93255.63
2023-01-23T08:07:16.606Z,93257.09
2023-01-23T08:09:45.747Z,93255.50
2023-01-23T08:12:14.527Z,93257.84
2023-01-23T08:14:42.988Z,93262.69
2023-01-23T08:17:11.455Z,93270.22
2023-01-23T08:19:40.109Z,93276.28
2023-01-23T08:22:08.520Z,93281.59
2023-01-23T08:24:38.635Z,93277.47
2023-01-23T08:27:07.103Z,93277.03
2023-01-23T08:29:35.821Z,93277.47
2023-01-23T08:32:04.295Z,93280.13
2023-01-23T08:34:32.878Z,93281.75
2023-01-23T08:37:01.301Z,93285.31
2023-01-23T08:39:31.995Z,93289.59
2023-01-23T08:42:02.230Z,93291.66
2023-01-23T08:44:31.542Z,93298.25
2023-01-23T08:46:59.992Z,93287.63
2023-01-23T08:49:28.501Z,93277.16
2023-01-23T08:51:59.248Z,93275.19
2023-01-23T08:54:28.073Z,93273.25
2023-01-23T08:56:56.727Z,93274.91
2023-01-23T08:59:26.854Z,93279.69
2023-01-23T09:01:55.803Z,93275.50
2023-01-23T09:04:24.296Z,93275.97
2023-01-23T09:06:52.731Z,93282.19
2023-01-23T09:09:21.150Z,93269.16
2023-01-23T09:11:49.823Z,93273.34
2023-01-23T09:14:18.274Z,93266.00
2023-01-23T09:16:48.181Z,93264.44
2023-01-23T09:19:16.891Z,93264.22
2023-01-23T09:21:45.364Z,93264.34
2023-01-23T09:24:13.885Z,93255.50
2023-01-23T09:26:43.601Z,93262.56
2023-01-23T09:29:12.038Z,93264.41
2023-01-23T09:31:40.502Z,93267.72
2023-01-23T09:34:10.374Z,93269.09
2023-01-23T09:36:43.266Z,93277.22
2023-01-23T09:39:13.101Z,93272.47
2023-01-23T09:41:42.575Z,93278.81
2023-01-23T09:44:17.759Z,93269.38
2023-01-23T09:46:53.048Z,93275.00
2023-01-23T09:49:30.387Z,93272.56
2023-01-23T09:52:04.165Z,93278.56
2023-01-23T09:54:44.686Z,93273.16
2023-01-23T09:57:19.738Z,93291.28
2023-01-23T10:00:00.110Z,93282.75
2023-01-23T10:02:29.802Z,93283.69
2023-01-23T10:05:03.487Z,93275.19
2023-01-23T10:07:56.909Z,93276.59
2023-01-23T10:10:57.176Z,93269.28
2023-01-23T10:13:53.813Z,93269.78
2023-01-23T10:16:50.727Z,93264.38
2023-01-23T10:19:40.079Z,93257.59
2023-01-23T10:22:29.255Z,93264.16
2023-01-23T10:24:59.925Z,93254.69
2023-01-23T10:27:38.243Z,93258.72
2023-01-23T10:30:21.133Z,93261.97
2023-01-23T10:32:54.024Z,93259.69
2023-01-23T10:35:30.306Z,93252.34
2023-01-23T10:38:07.559Z,93260.06
2023-01-23T10:40:53.484Z,93253.38
2023-01-23T10:43:23.693Z,93250.78
2023-01-23T10:45:52.342Z,93242.22
2023-01-23T10:48:41.726Z,93244.16
2023-01-23T10:51:46.308Z,93248.00
2023-01-23T10:54:31.877Z,93236.22
2023-01-23T10:57:03.697Z,93238.88
2023-01-23T10:59:38.021Z,93236.94
2023-01-23T11:02:28.505Z,93241.38
2023-01-23T11:04:57.372Z,93252.41
2023-01-23T11:07:28.732Z,93245.84
2023-01-23T11:10:01.397Z,93239.84
2023-01-23T11:12:32.519Z,93233.19
2023-01-23T11:15:22.409Z,93234.38
2023-01-23T11:17:53.026Z,93223.97
2023-01-23T11:20:28.535Z,93221.13
2023-01-23T11:23:07.042Z,93221.63
2023-01-23T11:25:40.523Z,93229.56
2023-01-23T11:28:27.301Z,93230.03
2023-01-23T11:31:13.711Z,93220.31
2023-01-23T11:33:48.586Z,93222.09
2023-01-23T11:36:40.377Z,93227.72
2023-01-23T11:39:22.829Z,93214.41
2023-01-23T11:41:53.543Z,93211.13
2023-01-23T11:44:25.382Z,93215.59
2023-01-23T11:47:23.105Z,93208.75
2023-01-23T11:50:11.989Z,93191.66
2023-01-23T11:52:51.248Z,93204.13
2023-01-23T11:55:56.165Z,93197.91
2023-01-23T11:58:50.311Z,93196.22
2023-01-23T12:01:24.361Z,93197.78
2023-01-23T12:04:21.616Z,93193.06
2023-01-23T12:07:12.976Z,93197.16
2023-01-23T12:09:51.712Z,93196.88
2023-01-23T12:12:47.835Z,93192.97
2023-01-23T12:15:31.878Z,93196.53
2023-01-23T12:18:16.595Z,93189.34
2023-01-23T12:20:57.328Z,93185.31
2023-01-23T12:23:46.556Z,93182.91
2023-01-23T12:26:19.529Z,93173.69
2023-01-23T12:29:26.565Z,93171.47
2023-01-23T12:32:25.328Z,93174.41
2023-01-23T12:35:09.852Z,93178.81
2023-01-23T12:38:01.515Z,93164.72
2023-01-23T12:40:38.785Z,93167.34
2023-01-23T12:43:14.420Z,93164.47
2023-01-23T12:45:49.429Z,93159.59
2023-01-23T12:48:28.215Z,93151.41
2023-01-23T12:51:04.443Z,93163.09
2023-01-23T12:53:38.627Z,93146.75
2023-01-23T12:56:12.844Z,93159.28
2023-01-23T12:58:45.297Z,93156.81
2023-01-23T13:01:45.803Z,93163.09
2023-01-23T13:04:35.631Z,93156.00
2023-01-23T13:07:31.855Z,93148.25
2023-01-23T13:10:51.307Z,93156.44
2023-01-23T13:13:20.534Z,93149.41
2023-01-23T13:16:06.058Z,93145.84
2023-01-23T13:18:56.606Z,93149.56
2023-01-23T13:21:44.310Z,93148.00
2023-01-23T13:25:00.092Z,93146.25
2023-01-23T13:27:44.881Z,93152.94
2023-01-23T13:30:41.713Z,93152.47
2023-01-23T13:33:55.250Z,93146.63
2023-01-23T13:36:40.524Z,93148.78
2023-01-23T13:39:30.504Z,93147.28
2023-01-23T13:42:35.974Z,93147.34
2023-01-23T13:45:32.596Z,93154.59
2023-01-23T14:20:39.951Z,93147.78
2023-01-23T14:23:28.274Z,93154.75
2023-01-23T14:25:57.290Z,93131.94
2023-01-23T14:28:25.998Z,93148.00
2023-01-23T14:31:01.561Z,93142.47
2023-01-23T14:33:35.791Z,93153.94
2023-01-23T14:36:04.787Z,93157.47
2023-01-23T14:38:35.915Z,93151.56
2023-01-23T14:41:09.048Z,93162.00
2023-01-23T14:43:38.840Z,93152.56
2023-01-23T14:46:16.569Z,93160.91
2023-01-23T14:48:47.843Z,93149.69
2023-01-23T14:51:21.902Z,93157.66
2023-01-23T14:53:59.458Z,93158.63
2023-01-23T14:56:32.848Z,93154.50
2023-01-23T14:59:05.099Z,93155.72
2023-01-23T15:01:35.928Z,93160.56
2023-01-23T15:04:08.071Z,93155.59
2023-01-23T15:06:38.194Z,93143.63
2023-01-23T15:09:15.865Z,93155.47
2023-01-23T15:11:45.477Z,93158.63
2023-01-23T15:14:27.195Z,93161.09
2023-01-23T15:17:04.887Z,93163.97
2023-01-23T15:19:36.891Z,93165.28
2023-01-23T15:22:19.348Z,93156.69
2023-01-23T15:24:50.003Z,93157.69
2023-01-23T15:27:27.745Z,93162.13
2023-01-23T15:30:37.898Z,93162.72
2023-01-23T15:33:25.138Z,93167.47
2023-01-23T15:35:54.080Z,93162.84
2023-01-23T15:38:23.085Z,93159.34
2023-01-23T15:40:52.925Z,93157.97
2023-01-23T15:43:21.408Z,93163.28
2023-01-23T15:45:49.881Z,93165.31
2023-01-23T15:48:18.334Z,93164.81
2023-01-23T15:50:46.800Z,93162.91
2023-01-23T15:53:16.469Z,93168.94
2023-01-23T15:55:45.257Z,93162.22
2023-01-23T15:58:17.829Z,93165.56
2023-01-23T16:00:47.047Z,93157.28
2023-01-23T16:03:15.546Z,93159.22
2023-01-23T16:05:45.105Z,93154.00
2023-01-23T16:08:23.103Z,93162.03
2023-01-23T16:10:52.303Z,93168.63
2023-01-23T16:13:22.243Z,93170.34
2023-01-23T16:15:51.019Z,93178.59
2023-01-23T16:18:19.752Z,93173.44
2023-01-23T16:20:48.519Z,93179.94
2023-01-23T16:23:21.777Z,93171.25
2023-01-23T16:25:50.884Z,93174.75
2023-01-23T16:28:24.450Z,93176.88
2023-01-23T16:30:53.160Z,93181.88
2023-01-23T16:33:22.480Z,93183.75
2023-01-23T16:35:52.391Z,93178.19
2023-01-23T16:38:24.555Z,93184.28
2023-01-23T16:40:54.486Z,93185.97
2023-01-23T16:43:25.072Z,93192.41
2023-01-23T16:45:56.482Z,93185.78
2023-01-23T16:48:28.260Z,93194.84
2023-01-23T16:51:01.893Z,93195.81
2023-01-23T16:53:33.474Z,93191.94
2023-01-23T16:56:03.529Z,93193.88
2023-01-23T16:58:39.486Z,93204.22
2023-01-23T17:01:16.554Z,93200.75
2023-01-23T17:03:46.708Z,93202.38
2023-01-23T17:06:17.269Z,93212.59
2023-01-23T17:08:46.194Z,93206.63
2023-01-23T17:11:21.579Z,93208.81
2023-01-23T17:13:57.636Z,93208.09
2023-01-23T17:16:27.940Z,93207.72
2023-01-23T17:18:59.279Z,93205.78
2023-01-23T17:21:33.576Z,93201.81
2023-01-23T17:24:02.489Z,93213.47
2023-01-23T17:26:30.962Z,93208.44
2023-01-23T17:29:00.995Z,93200.97
2023-01-23T17:31:32.575Z,93198.94
2023-01-23T17:34:03.053Z,93210.19
2023-01-23T17:36:31.525Z,93199.63
2023-01-23T17:39:00.923Z,93201.72
2023-01-23T17:41:31.557Z,93204.41
2023-01-23T17:44:02.109Z,93205.56
2023-01-23T17:46:34.286Z,93190.69
2023-01-23T17:49:02.833Z,93206.94
2023-01-23T17:51:33.156Z,93198.69
2023-01-23T17:54:01.626Z,93190.47
2023-01-23T17:56:30.054Z,93197.13
2023-01-23T17:58:58.496Z,93203.84
2023-01-23T18:01:28.425Z,93200.31
2023-01-23T18:03:57.488Z,93208.50
2023-01-23T18:06:25.924Z,93198.94
2023-01-23T18:08:54.587Z,93210.69
2023-01-23T18:11:26.840Z,93198.06
2023-01-23T18:14:21.418Z,93207.78
2023-01-23T18:16:51.867Z,93201.06
2023-01-23T18:19:22.802Z,93205.28
2023-01-23T18:21:53.721Z,93214.06
2023-01-23T18:24:27.527Z,93216.75
2023-01-23T18:27:01.700Z,93199.53
2023-01-23T18:29:44.449Z,93212.72
2023-01-23T18:33:02.625Z,93207.72
2023-01-23T18:35:48.103Z,93209.22
2023-01-23T18:38:27.619Z,93207.72
2023-01-23T18:41:09.678Z,93210.13
2023-01-23T18:43:41.216Z,93198.25
2023-01-23T18:46:16.423Z,93210.78
2023-01-23T18:48:49.569Z,93212.81
2023-01-23T18:51:39.052Z,93214.66
2023-01-23T18:54:21.482Z,93213.31
2023-01-23T18:57:07.511Z,93211.88
2023-01-23T18:59:49.290Z,93209.44
2023-01-23T19:02:29.530Z,93206.56
2023-01-23T19:05:22.924Z,93206.84
2023-01-23T19:07:51.909Z,93209.81
2023-01-23T19:10:23.017Z,93207.78
2023-01-23T19:13:09.751Z,93198.91
2023-01-23T19:15:47.207Z,93195.78
2023-01-23T19:18:56.374Z,93206.22
2023-01-23T19:21:29.212Z,93199.88
2023-01-23T19:24:00.493Z,93192.50
2023-01-23T19:26:32.128Z,93200.59
2023-01-23T19:29:19.234Z,93200.91
2023-01-23T19:32:06.493Z,93201.69
2023-01-23T19:34:36.081Z,93207.94
2023-01-23T19:37:05.960Z,93217.03
2023-01-23T19:39:34.514Z,93212.22
2023-01-23T19:42:03.439Z,93215.13
2023-01-23T19:44:32.117Z,93219.03
2023-01-23T19:47:01.043Z,93210.25
2023-01-23T19:49:29.501Z,93194.72
2023-01-23T19:51:58.158Z,93212.31
2023-01-23T19:54:27.960Z,93212.31
2023-01-23T19:56:57.699Z,93213.38
2023-01-23T19:59:27.518Z,93219.97
2023-01-23T20:01:56.403Z,93208.75
2023-01-23T20:04:25.644Z,93220.44
2023-01-23T20:06:54.120Z,93226.78
2023-01-23T20:09:23.007Z,93234.06
2023-01-23T20:11:53.320Z,93234.41
2023-01-23T20:14:22.649Z,93244.41
2023-01-23T20:16:51.383Z,93238.63
2023-01-23T20:19:20.145Z,93237.78
2023-01-23T20:21:48.873Z,93240.28
2023-01-23T20:24:18.111Z,93234.78
2023-01-23T20:26:47.567Z,93241.78
2023-01-23T20:29:17.408Z,93242.97
2023-01-23T20:31:46.895Z,93246.16
2023-01-23T20:34:15.473Z,93248.72
2023-01-23T20:36:44.204Z,93251.75
2023-01-23T20:39:13.869Z,93248.16
2023-01-23T20:41:42.620Z,93251.66
2023-01-23T20:44:11.449Z,93255.81
2023-01-23T20:46:41.394Z,93259.59
2023-01-23T20:49:11.968Z,93252.97
2023-01-23T20:51:40.381Z,93252.81
2023-01-23T20:54:07.810Z,93252.28
2023-01-23T20:56:36.270Z,93249.97
2023-01-23T20:59:19.226Z,93242.84
2023-01-23T21:02:06.725Z,93238.31
2023-01-23T21:04:37.320Z,93233.44
2023-01-23T21:07:06.768Z,93229.13
2023-01-23T21:09:35.276Z,93242.97
2023-01-23T21:12:03.879Z,93238.97
2023-01-23T21:14:32.367Z,93250.94
2023-01-23T21:17:02.640Z,93244.91
2023-01-23T21:19:31.759Z,93240.75
2023-01-23T21:22:00.356Z,93234.84
2023-01-23T21:24:29.232Z,93247.97
2023-01-23T21:26:57.663Z,93249.72
2023-01-23T21:29:26.306Z,93252.53
2023-01-23T21:31:54.841Z,93254.38
2023-01-23T21:34:26.175Z,93243.94
2023-01-23T21:36:54.693Z,93245.72
2023-01-23T21:39:23.362Z,93261.47
2023-01-23T21:41:51.797Z,93258.94
2023-01-23T21:44:20.221Z,93265.09
2023-01-23T21:46:49.240Z,93261.38
2023-01-23T21:49:17.937Z,93255.28
2023-01-23T21:51:47.817Z,93256.50
2023-01-23T21:54:16.512Z,93254.41
2023-01-23T21:56:44.964Z,93264.09
2023-01-23T21:59:13.406Z,93259.59
2023-01-23T22:01:43.013Z,93252.84
2023-01-23T22:04:13.726Z,93263.69
2023-01-23T22:06:44.223Z,93277.56
2023-01-23T22:09:18.657Z,93271.34
2023-01-23T22:11:48.506Z,93276.47
2023-01-23T22:14:18.351Z,93278.78
2023-01-23T22:16:49.468Z,93275.34
2023-01-23T22:19:23.357Z,93281.97
2023-01-23T22:21:53.334Z,93286.44
2023-01-23T22:24:23.393Z,93284.09
2023-01-23T22:26:51.906Z,93284.75
2023-01-23T22:29:20.341Z,93273.38
2023-01-23T22:31:48.959Z,93272.56
2023-01-23T22:34:17.475Z,93275.22
2023-01-23T22:36:45.911Z,93284.81
2023-01-23T22:39:17.009Z,93278.84
2023-01-23T22:41:48.295Z,93290.28
2023-01-23T22:44:16.754Z,93273.00
2023-01-23T22:46:45.475Z,93280.03
2023-01-23T22:49:13.910Z,93281.63
2023-01-23T22:51:42.335Z,93278.84
2023-01-23T22:54:10.843Z,93280.75
2023-01-23T22:56:39.547Z,93282.03
2023-01-23T22:59:10.288Z,93282.81
2023-01-23T23:01:38.795Z,93286.66
2023-01-23T23:04:07.283Z,93279.22
2023-01-23T23:06:35.714Z,93292.22
2023-01-23T23:09:05.397Z,93284.00
2023-01-23T23:11:35.255Z,93274.22
2023-01-23T23:14:03.708Z,93281.19
2023-01-23T23:16:34.320Z,93280.75
2023-01-23T23:19:05.139Z,93275.44
2023-01-23T23:21:36.862Z,93268.41
2023-01-23T23:24:08.351Z,93271.41
2023-01-23T23:26:37.188Z,93283.09
2023-01-23T23:29:06.449Z,93281.34
2023-01-23T23:31:36.373Z,93270.72
2023-01-23T23:34:05.149Z,93272.97
2023-01-23T23:36:33.904Z,93278.13
2023-01-23T23:39:02.602Z,93271.50
2023-01-23T23:41:31.372Z,93274.31
2023-01-23T23:43:59.834Z,93281.00
2023-01-23T23:46:28.827Z,93266.03
2023-01-23T23:48:58.681Z,93261.81
2023-01-23T23:51:27.793Z,93267.81
2023-01-23T23:53:56.264Z,93269.50
2023-01-23T23:56:27.554Z,93258.28
2023-01-23T23:58:57.567Z,93263.84
